Latest Coastal Weather Observations for Coles Point

IDS60701

Issued at 5:51 pm CST Thursday 28 May 2015 (issued every 10 minutes, with the page automatically refreshed every 10 minutes)

About coastal observations | Map of coastal stations | Coastal observations for SA | Marine services | Other Formats
Station Details ID: 018191 Name: COLES POINT Lat: -34.37 Lon: 135.37 Height: 28.0 m
Data from the previous 72 hours. | See also: Recent months at Coles Point
Date/Time
CST
Temp

°C
Wind Pressure Rain
since 9am
mm
Weather Cloud Vis
km
Sea
Height
m
Swell
Dir
 
Speed
knots
Gust
knots
hPa Trend Height
m
Period
s
Dir
28/05:30pm 14.1 SW 6 7 1020.0 - 0.4 - - - - - - -
28/05:00pm 14.1 SSW 9 12 1019.8 - 0.4 - - - - - - -
28/04:30pm 14.3 WSW 10 16 1019.6 - 0.4 - - - - - - -
28/04:00pm 15.0 SW 9 11 1019.4 - 0.4 - - - - - - -
28/03:30pm 14.6 SW 11 14 1019.3 - 0.4 - - - - - - -
28/03:00pm 14.7 SW 12 15 1019.0 - 0.4 Recent precip. - - - - - -
28/02:30pm 14.9 WSW 14 24 1018.6 - 0.0 - - - - - - -
28/02:29pm 15.4 WSW 14 24 1018.6 - 0.0 - - - - - - -
28/02:00pm 17.3 W 12 15 1018.5 - 0.0 - - - - - - -
28/01:30pm 16.3 W 9 13 1018.5 - 0.0 - - - - - - -
28/01:00pm 15.7 W 11 17 1018.7 - 0.0 - - - - - - -
28/12:30pm 17.3 WNW 12 15 1018.8 - 0.0 - - - - - - -
28/12:00pm 17.3 WNW 14 17 1019.1 - 0.0 - - - - - - -
28/11:30am 17.7 WNW 15 20 1019.3 - 0.0 - - - - - - -
28/11:00am 17.7 WNW 12 16 1019.6 - 0.0 - - - - - - -
28/10:30am 17.4 WNW 13 17 1019.7 - 0.0 - - - - - - -
28/10:00am 16.9 WNW 12 16 1019.6 - 0.0 - - - - - - -
28/09:30am 16.5 WNW 13 18 1019.5 - 0.0 - - - - - - -
28/09:00am 15.8 WNW 12 16 1019.2 - 0.2 - - - - - - -
28/08:30am 14.4 NW 8 11 1019.0 - 0.2 - - - - - - -
28/08:00am 14.8 NW 8 12 1018.7 - 0.2 - - - - - - -
28/07:30am 14.5 NW 8 10 1018.5 - 0.2 - - - - - - -
28/07:00am 14.4 NNW 10 13 1018.3 - 0.2 - - - - - - -
28/06:30am 14.8 NW 8 11 1018.2 - 0.2 - - - - - - -
28/06:00am 14.8 NNW 8 10 1017.8 - 0.2 - - - - - - -
28/05:30am 14.9 NNW 8 11 1017.6 - 0.2 - - - - - - -
28/05:00am 14.3 NNW 8 10 1017.7 - 0.2 - - - - - - -
28/04:30am 12.4 NNW 5 6 1017.6 - 0.0 - - - - - - -
28/04:00am 12.7 NW 5 6 1017.4 - 0.0 - - - - - - -
28/03:30am 13.3 NW 5 6 1017.7 - 0.0 - - - - - - -
28/03:00am 13.1 NW 4 5 1017.4 - 0.0 - - - - - - -
28/02:30am 14.6 NW 6 9 1018.0 - 0.0 - - - - - - -
28/02:00am 14.3 NW 6 7 1018.2 - 0.0 - - - - - - -
28/01:30am 13.1 NW 4 5 1018.0 - 0.0 - - - - - - -
28/01:00am 14.4 NW 5 6 1018.0 - 0.0 - - - - - - -
28/12:30am 14.5 NW 6 8 1018.3 - 0.0 - - - - - - -
28/12:00am 14.0 NW 5 6 1018.4 - 0.0 - - - - - - -
 
Date/Time
CST
Temp

°C
Wind Pressure Rain
since 9am
mm
Weather Cloud Vis
km
Sea
Height
m
Swell
Dir
 
Speed
knots
Gust
knots
hPa Trend Height
m
Period
s
Dir
27/11:30pm 14.4 NNW 6 6 1018.3 - 0.0 - - - - - - -
27/11:00pm 15.2 NW 4 5 1018.2 - 0.0 - - - - - - -
27/10:30pm 15.4 NNW 6 7 1018.7 - 0.0 - - - - - - -
27/10:00pm 15.4 NNW 7 8 1018.7 - 0.0 - - - - - - -
27/09:30pm 15.5 NNW 7 9 1018.8 - 0.0 - - - - - - -
27/09:00pm 15.6 NNW 7 9 1018.8 - 0.0 - - - - - - -
27/08:30pm 15.5 NNW 6 9 1018.5 - 0.0 - - - - - - -
27/08:00pm 15.6 NNW 8 10 1018.5 - 0.0 - - - - - - -
27/07:30pm 15.5 NNW 6 8 1018.7 - 0.0 - - - - - - -
27/07:00pm 15.3 NNW 7 8 1018.4 - 0.0 - - - - - - -
27/06:30pm 15.6 NNW 7 9 1018.3 - 0.0 - - - - - - -
27/06:00pm 15.6 NNW 8 9 1018.2 - 0.0 - - - - - - -
27/05:30pm 15.7 NNW 7 9 1018.1 - 0.0 - - - - - - -
27/05:00pm 15.9 NNW 8 10 1018.0 - 0.0 - - - - - - -
27/04:30pm 15.7 NW 4 6 1018.1 - 0.0 - - - - - - -
27/04:00pm 15.8 NNW 7 8 1018.3 - 0.0 - - - - - - -
27/03:30pm 15.7 NNW 7 8 1018.3 - 0.0 - - - - - - -
27/03:00pm 15.4 NNW 8 10 1018.4 - 0.0 - - - - - - -
27/02:30pm 15.7 NNW 10 12 1018.4 - 0.0 - - - - - - -
27/02:00pm 15.1 NNW 9 12 1018.7 - 0.0 - - - - - - -
27/01:30pm 14.9 NNW 11 13 1018.8 - 0.0 - - - - - - -
27/01:00pm 14.7 NNW 11 14 1019.1 - 0.0 - - - - - - -
27/12:30pm 14.7 NNW 12 15 1019.7 - 0.0 - - - - - - -
27/12:00pm 15.1 NNW 12 15 1019.8 - 0.0 - - - - - - -
27/11:30am 14.8 NNW 11 14 1020.3 - 0.0 - - - - - - -
27/11:00am 14.8 NNW 10 14 1020.5 - 0.0 - - - - - - -
27/10:30am 15.3 NNW 11 14 1020.8 - 0.0 - - - - - - -
27/10:00am 15.2 NNW 11 14 1020.9 - 0.0 - - - - - - -
27/09:30am 15.0 NW 11 16 1020.9 - 0.0 - - - - - - -
27/09:00am 15.0 NNW 11 15 1020.6 - 2.0 - - - - - - -
27/08:30am 14.9 NNW 8 11 1020.3 - 2.0 - - - - - - -
27/08:00am 14.9 N 9 13 1020.2 - 2.0 - - - - - - -
27/07:30am 14.6 NNW 8 10 1020.2 - 2.0 - - - - - - -
27/07:00am 14.5 NNW 7 9 1020.1 - 2.0 - - - - - - -
27/06:30am 14.5 N 5 7 1019.8 - 2.0 - - - - - - -
27/06:00am 14.2 N 6 9 1019.7 - 2.0 - - - - - - -
27/05:30am 14.9 N 7 11 1019.4 - 2.0 - - - - - - -
27/05:00am 15.0 NNW 7 10 1019.6 - 2.0 - - - - - - -
27/04:30am 12.4 NE 6 7 1019.5 - 2.0 - - - - - - -
27/04:00am 12.1 NE 9 11 1019.3 - 2.0 - - - - - - -
27/03:30am 15.2 NNW 7 9 1019.6 - 2.0 - - - - - - -
27/03:00am 14.7 NNW 8 10 1019.8 - 2.0 - - - - - - -
27/02:30am 14.7 NNW 8 11 1019.9 - 2.0 - - - - - - -
27/02:00am 15.3 NNW 9 13 1020.1 - 2.0 - - - - - - -
27/01:30am 15.3 NNW 8 9 1020.3 - 2.0 - - - - - - -
27/01:00am 15.3 NNW 7 9 1020.5 - 2.0 - - - - - - -
27/12:30am 15.2 NNW 7 9 1020.6 - 2.0 - - - - - - -
27/12:00am 14.8 NNW 6 8 1020.7 - 2.0 - - - - - - -
 
Date/Time
CST
Temp

°C
Wind Pressure Rain
since 9am
mm
Weather Cloud Vis
km
Sea
Height
m
Swell
Dir
 
Speed
knots
Gust
knots
hPa Trend Height
m
Period
s
Dir
26/11:30pm 13.6 NNW 6 8 1020.9 - 2.0 - - - - - - -
26/11:00pm 13.8 NNW 7 8 1021.0 - 2.0 - - - - - - -
26/10:30pm 13.8 NNW 7 8 1020.9 - 2.0 - - - - - - -
26/10:00pm 14.6 NNW 8 11 1020.8 - 2.0 - - - - - - -
26/09:30pm 14.4 N 8 11 1020.8 - 2.0 - - - - - - -
26/09:00pm 14.9 N 9 12 1020.6 - 2.0 - - - - - - -
26/08:30pm 15.5 N 10 12 1020.6 - 2.0 - - - - - - -
26/08:00pm 14.6 NNE 7 9 1020.9 - 2.0 - - - - - - -
26/07:30pm 13.2 NNE 9 9 1020.8 - 2.0 - - - - - - -
26/07:00pm 13.5 NE 7 9 1020.6 - 2.0 - - - - - - -
26/06:30pm 13.9 NE 9 10 1020.7 - 2.0 - - - - - - -
26/06:00pm 14.0 NNE 6 7 1020.6 - 2.0 - - - - - - -
26/05:30pm 14.1 NNE 5 6 1020.6 - 2.0 - - - - - - -
26/05:00pm 14.5 NE 5 7 1020.7 - 2.0 - - - - - - -
26/04:30pm 14.4 N 5 7 1021.2 - 2.0 - - - - - - -
26/04:00pm 14.7 NW 7 10 1021.4 - 1.4 - - - - - - -
26/03:30pm 14.8 NW 11 17 1021.4 - 0.8 - - - - - - -
26/03:00pm 17.0 NNW 9 12 1020.9 - 0.0 - - - - - - -
26/02:30pm 17.6 NNW 8 11 1020.7 - 0.0 - - - - - - -
26/02:00pm 18.2 NNW 8 11 1020.8 - 0.0 - - - - - - -
26/01:30pm 18.5 NW 10 13 1021.1 - 0.0 - - - - - - -
26/01:00pm 19.4 NW 9 14 1021.4 - 0.0 - - - - - - -
26/12:30pm 19.7 NW 9 11 1021.7 - 0.0 - - - - - - -
26/12:00pm 19.9 NNW 9 11 1022.5 - 0.0 - - - - - - -
26/11:30am 19.6 NNW 7 13 1022.7 - 0.0 - - - - - - -
26/11:00am 18.7 NE 3 7 1023.1 - 0.0 - - - - - - -
26/10:30am 16.8 NE 5 7 1023.5 - 0.0 - - - - - - -
26/10:00am 15.9 NE 6 7 1023.8 - 0.0 - - - - - - -
26/09:30am 14.8 NE 7 8 1024.1 - 0.0 - - - - - - -
26/09:00am 14.3 NE 7 9 1024.2 - 0.0 - - - - - - -
26/08:30am 14.0 NE 7 8 1024.5 - 0.0 - - - - - - -
26/08:00am 12.8 NE 8 9 1024.1 - 0.0 - - - - - - -
26/07:30am 12.4 NNE 5 6 1024.3 - 0.0 - - - - - - -
26/07:00am 12.7 NE 10 11 1024.1 - 0.0 - - - - - - -
26/06:30am 12.4 NE 10 11 1023.8 - 0.0 - - - - - - -
26/06:00am 12.6 NE 9 10 1023.8 - 0.0 - - - - - - -
26/05:30am 12.9 NE 9 10 1024.0 - 0.0 - - - - - - -
26/05:00am 13.0 NE 9 9 1024.0 - 0.0 - - - - - - -
26/04:30am 13.2 NE 9 9 1024.0 - 0.0 - - - - - - -
26/04:00am 13.5 NE 8 9 1024.1 - 0.0 - - - - - - -
26/03:30am 13.9 NE 9 10 1024.4 - 0.0 - - - - - - -
26/03:00am 13.9 NE 9 10 1024.5 - 0.0 - - - - - - -
26/02:30am 13.7 NE 9 10 1024.6 - 0.0 - - - - - - -
26/02:00am 13.4 NE 8 8 1024.8 - 0.0 - - - - - - -
26/01:30am 13.5 NE 8 9 1024.9 - 0.0 - - - - - - -
26/01:00am 13.5 NE 8 9 1025.2 - 0.0 - - - - - - -
26/12:30am 13.4 NE 8 9 1025.4 - 0.0 - - - - - - -
26/12:00am 13.9 NE 8 9 1025.7 - 0.0 - - - - - - -
 
Date/Time
CST
Temp

°C
Wind Pressure Rain
since 9am
mm
Weather Cloud Vis
km
Sea
Height
m
Swell
Dir
 
Speed
knots
Gust
knots
hPa Trend Height
m
Period
s
Dir
25/11:30pm 13.7 NE 9 10 1025.8 - 0.0 - - - - - - -
25/11:00pm 13.7 NNE 7 8 1025.9 - 0.0 - - - - - - -
25/10:30pm 14.0 NE 8 9 1026.0 - 0.0 - - - - - - -
25/10:00pm 13.8 NE 7 8 1026.1 - 0.0 - - - - - - -
25/09:30pm 13.9 NE 8 9 1026.2 - 0.0 - - - - - - -
25/09:00pm 14.1 NE 8 10 1026.3 - 0.0 - - - - - - -
25/08:30pm 14.3 NE 7 8 1026.2 - 0.0 - - - - - - -
25/08:00pm 14.0 NE 5 6 1026.1 - 0.0 - - - - - - -
25/07:30pm 14.1 E 5 7 1026.0 - 0.0 - - - - - - -
25/07:00pm 14.9 ESE 4 7 1025.7 - 0.0 - - - - - - -
25/06:30pm 14.3 SE 2 4 1025.6 - 0.0 - - - - - - -
25/06:00pm 14.4 S 1 3 1025.4 - 0.0 - - - - - - -

Other Formats:

Comma delimited format used in spreadsheet applications
http://www.bom.gov.au/fwo/IDS60701/IDS60701.94658.axf

JavaScript Object Notation format (JSON) in row-major order
http://www.bom.gov.au/fwo/IDS60701/IDS60701.94658.json